Time;durP1;ratioP1;P1;durP2;ratioP2;P2;SDS_P1;SDS_P2;PMS_P1;PMS_P2;Temp;Humidity;BMP_temperature;BMP_pressure;BME280_temperature;BME280_humidity;BME280_pressure;Samples;Min_cycle;Max_cycle;Signal;HPM_P1;HPM_P2
2022/02/15 00:01:11;;;;;;;14.80;8.50;;;;;;;-0.69;72.01;96229.42;107314;1274;104245;-82
2022/02/15 00:03:39;;;;;;;19.60;11.00;;;;;;;-0.80;71.82;96228.21;107303;1273;141264;-82
2022/02/15 00:06:07;;;;;;;19.40;13.10;;;;;;;-0.94;72.68;96229.16;107422;1274;109684;-81
2022/02/15 00:08:36;;;;;;;23.40;12.70;;;;;;;-0.99;73.16;96234.20;107242;1274;157104;-82
2022/02/15 00:11:04;;;;;;;26.00;13.80;;;;;;;-0.99;73.43;96230.44;107238;1274;144106;-82
2022/02/15 00:13:32;;;;;;;22.80;11.80;;;;;;;-0.89;73.90;96223.30;107232;1274;124224;-82
2022/02/15 00:16:00;;;;;;;18.30;11.80;;;;;;;-0.79;73.71;96223.29;107297;1274;149080;-81
2022/02/15 00:18:29;;;;;;;16.90;10.90;;;;;;;-0.73;73.93;96226.34;107142;1274;178703;-82
2022/02/15 00:20:57;;;;;;;23.30;13.30;;;;;;;-0.80;73.56;96225.86;107285;1274;137658;-82
2022/02/15 00:23:25;;;;;;;22.90;13.40;;;;;;;-1.01;73.53;96225.66;107451;1274;106842;-82
2022/02/15 00:25:54;;;;;;;28.20;14.90;;;;;;;-1.11;73.38;96228.83;107276;1274;134891;-82
2022/02/15 00:28:22;;;;;;;20.00;12.10;;;;;;;-1.28;73.63;96222.73;107330;1273;142083;-81
2022/02/15 00:30:51;;;;;;;15.10;9.10;;;;;;;-1.28;74.26;96215.64;107493;1274;107750;-82
2022/02/15 00:33:19;;;;;;;14.90;8.90;;;;;;;-1.26;74.18;96215.20;107536;1273;133795;-82
2022/02/15 00:35:47;;;;;;;13.90;9.10;;;;;;;-1.21;74.88;96218.98;107493;1274;122841;-82
2022/02/15 00:38:16;;;;;;;10.50;7.00;;;;;;;-1.15;74.64;96225.73;107486;1274;119466;-82
2022/02/15 00:40:44;;;;;;;11.40;7.70;;;;;;;-1.16;74.81;96222.59;105856;1274;1950423;-82
2022/02/15 00:43:13;;;;;;;13.60;7.90;;;;;;;-1.14;74.63;96219.13;107270;1273;160037;-82
2022/02/15 00:45:41;;;;;;;11.10;7.40;;;;;;;-1.08;75.05;96216.24;107242;1274;158099;-82
2022/02/15 00:48:09;;;;;;;13.20;8.00;;;;;;;-1.00;75.10;96209.15;107249;1274;137814;-81
2022/02/15 00:50:38;;;;;;;15.80;9.60;;;;;;;-0.96;75.35;96198.05;107233;1274;132796;-82
2022/02/15 00:53:06;;;;;;;16.20;9.90;;;;;;;-0.86;75.62;96196.38;107315;1274;119106;-82
2022/02/15 00:55:34;;;;;;;15.60;9.90;;;;;;;-0.83;75.05;96200.59;107231;1274;144141;-82
2022/02/15 00:58:03;;;;;;;17.90;11.20;;;;;;;-0.95;74.62;96197.35;107342;1274;144571;-81
2022/02/15 01:00:31;;;;;;;17.80;10.30;;;;;;;-1.02;74.43;96195.73;107203;1274;199800;-82
2022/02/15 01:03:00;;;;;;;17.30;11.20;;;;;;;-1.06;74.88;96187.80;107284;1274;117314;-82
2022/02/15 01:05:28;;;;;;;18.80;11.70;;;;;;;-1.08;74.77;96184.35;105909;1274;1940041;-82
2022/02/15 01:07:57;;;;;;;16.70;10.50;;;;;;;-1.10;75.01;96185.54;107335;1274;139820;-82
2022/02/15 01:10:25;;;;;;;14.70;9.10;;;;;;;-1.11;75.14;96185.83;107299;1274;134299;-82
2022/02/15 01:12:54;;;;;;;12.20;8.20;;;;;;;-1.10;75.17;96185.66;107385;1274;141463;-82
2022/02/15 01:15:22;;;;;;;14.20;8.20;;;;;;;-1.08;75.52;96185.60;107238;1274;118124;-82
2022/02/15 01:17:50;;;;;;;12.70;8.30;;;;;;;-1.09;75.34;96185.48;107482;1274;132785;-82
2022/02/15 01:20:19;;;;;;;12.70;8.40;;;;;;;-1.18;75.29;96183.36;107545;1273;123055;-82
2022/02/15 01:22:47;;;;;;;11.70;7.20;;;;;;;-1.18;75.52;96180.52;107434;1274;126004;-82
2022/02/15 01:25:15;;;;;;;13.40;8.40;;;;;;;-1.18;76.04;96178.95;107312;1274;128980;-82
2022/02/15 01:27:44;;;;;;;12.50;9.00;;;;;;;-1.10;76.40;96177.02;107334;1274;89912;-82
2022/02/15 01:30:12;;;;;;;15.70;9.70;;;;;;;-1.05;76.51;96173.35;107362;1273;129498;-82
2022/02/15 01:32:41;;;;;;;17.50;9.60;;;;;;;-1.02;76.60;96167.08;107284;1274;128347;-82
2022/02/15 01:35:09;;;;;;;14.50;8.40;;;;;;;-1.06;76.80;96165.27;107404;1274;108943;-82
2022/02/15 01:37:38;;;;;;;14.10;8.40;;;;;;;-1.06;77.01;96161.10;107416;1273;105879;-82
2022/02/15 01:40:09;;;;;;;14.50;8.60;;;;;;;-1.07;76.98;96157.13;107320;1274;111111;-82
2022/02/15 01:42:37;;;;;;;12.70;8.60;;;;;;;-1.04;76.98;96157.10;107454;1274;123966;-82
2022/02/15 01:45:10;;;;;;;12.40;8.10;;;;;;;-0.97;77.09;96150.23;107374;1274;121568;-81
2022/02/15 01:47:39;;;;;;;13.80;8.50;;;;;;;-0.98;76.97;96149.84;107246;1274;101752;-80
2022/02/15 01:50:09;;;;;;;14.80;8.40;;;;;;;-1.07;76.84;96141.20;107355;1274;106528;-82
2022/02/15 01:52:37;;;;;;;14.50;8.30;;;;;;;-1.07;77.21;96141.05;107393;1274;115753;-82
2022/02/15 01:55:09;;;;;;;13.90;9.20;;;;;;;-1.08;77.08;96136.09;105884;1274;2120881;-82
2022/02/15 01:57:38;;;;;;;16.10;10.10;;;;;;;-1.05;77.42;96138.25;107309;1274;120258;-82
2022/02/15 02:00:11;;;;;;;14.40;8.70;;;;;;;-0.94;77.97;96132.21;107320;1274;128088;-82
2022/02/15 02:02:40;;;;;;;12.60;8.50;;;;;;;-0.84;77.62;96132.70;107289;1274;131700;-82
2022/02/15 02:07:58;;;;;;;12.80;8.50;;;;;;;-0.90;77.12;96144.80;107314;1273;131221;-81
2022/02/15 02:10:27;;;;;;;13.40;8.70;;;;;;;-1.04;76.87;96153.82;107265;1274;127989;-82
2022/02/15 02:12:55;;;;;;;15.40;9.00;;;;;;;-1.20;77.05;96148.57;107208;1273;142836;-82
2022/02/15 02:15:25;;;;;;;15.90;8.90;;;;;;;-1.24;77.55;96153.41;107219;1274;129165;-81
2022/02/15 02:17:53;;;;;;;17.20;9.90;;;;;;;-1.30;77.73;96149.90;107427;1274;154688;-81
2022/02/15 02:20:22;;;;;;;14.70;9.00;;;;;;;-1.28;78.12;96151.44;107177;1274;162437;-81
2022/02/15 02:22:51;;;;;;;15.20;8.90;;;;;;;-1.27;77.79;96150.67;107444;1273;129963;-82
2022/02/15 02:25:21;;;;;;;15.30;8.70;;;;;;;-1.26;77.99;96150.12;107438;1274;125484;-82
2022/02/15 02:27:49;;;;;;;;;;;;;;;-1.26;77.84;96151.52;107367;1274;130294;-82
2022/02/15 02:30:18;;;;;;;12.70;7.90;;;;;;;-1.26;77.98;96154.20;107491;1273;153583;-82
2022/02/15 02:32:46;;;;;;;11.50;7.60;;;;;;;-1.26;77.80;96152.55;107505;1274;119697;-82
2022/02/15 02:35:14;;;;;;;11.00;7.30;;;;;;;-1.28;77.88;96154.88;107232;1274;171171;-82
2022/02/15 02:37:43;;;;;;;11.50;7.80;;;;;;;-1.27;78.10;96156.67;107353;1274;138111;-82
2022/02/15 02:40:13;;;;;;;12.90;7.70;;;;;;;-1.25;78.31;96159.98;107308;1274;112406;-82
2022/02/15 02:42:42;;;;;;;12.30;7.90;;;;;;;-1.24;78.24;96154.77;107175;1274;138265;-82
2022/02/15 02:45:13;;;;;;;14.40;8.50;;;;;;;-1.21;78.62;96154.89;107277;1274;117019;-82
2022/02/15 02:47:44;;;;;;;12.60;7.90;;;;;;;-1.18;78.36;96157.30;107391;1274;114419;-82
2022/02/15 02:50:14;;;;;;;10.20;6.70;;;;;;;-1.19;78.24;96158.13;107359;1273;102304;-82
2022/02/15 02:52:42;;;;;;;15.60;9.20;;;;;;;-1.26;78.17;96155.90;107301;1274;122027;-82
2022/02/15 02:55:11;;;;;;;11.90;7.70;;;;;;;-1.36;78.45;96153.16;107293;1274;137500;-82
2022/02/15 02:57:40;;;;;;;12.10;8.00;;;;;;;-1.31;79.00;96150.95;107266;1273;125615;-82
2022/02/15 03:00:12;;;;;;;13.20;7.70;;;;;;;-1.19;79.13;96151.92;107293;1273;133840;-82
2022/02/15 03:02:41;;;;;;;15.80;9.00;;;;;;;-1.09;79.74;96153.54;107357;1274;100641;-82
2022/02/15 03:05:10;;;;;;;13.80;8.90;;;;;;;-0.95;80.13;96149.15;107285;1274;129089;-82
2022/02/15 03:07:38;;;;;;;14.20;8.80;;;;;;;-0.84;80.31;96144.67;107326;1274;115653;-82
2022/02/15 03:10:08;;;;;;;15.20;9.10;;;;;;;-0.76;79.81;96150.15;107365;1273;121041;-82
2022/02/15 03:12:36;;;;;;;14.00;9.00;;;;;;;-0.86;79.21;96148.58;107352;1274;129398;-82
2022/02/15 03:15:06;;;;;;;14.50;9.90;;;;;;;-1.00;78.59;96147.64;105772;1273;2149571;-82
2022/02/15 03:17:35;;;;;;;17.00;8.80;;;;;;;-1.15;78.71;96148.88;107281;1274;112137;-82
2022/02/15 03:20:04;;;;;;;14.80;9.40;;;;;;;-1.10;79.73;96144.75;107309;1274;141212;-82
2022/02/15 03:22:32;;;;;;;13.00;8.90;;;;;;;-0.88;80.50;96144.30;107394;1274;123195;-82
2022/02/15 03:25:01;;;;;;;14.90;9.30;;;;;;;-0.75;80.03;96144.12;107233;1274;176303;-82
2022/02/15 03:27:30;;;;;;;15.90;10.20;;;;;;;-0.71;80.03;96146.06;106030;1274;1801360;-82
2022/02/15 03:29:58;;;;;;;18.90;9.20;;;;;;;-0.72;79.64;96141.83;107377;1274;121415;-82
2022/02/15 03:32:26;;;;;;;19.10;11.00;;;;;;;-0.67;79.96;96141.71;107458;1274;101008;-82
2022/02/15 03:34:54;;;;;;;16.40;10.00;;;;;;;-0.57;80.16;96141.23;107116;1274;155908;-81
2022/02/15 03:37:23;;;;;;;16.20;9.80;;;;;;;-0.65;79.72;96142.25;107051;1273;164708;-81
2022/02/15 03:39:51;;;;;;;17.30;10.00;;;;;;;-0.66;79.97;96138.46;107390;1274;158666;-82
2022/02/15 03:45:07;;;;;;;14.90;9.20;;;;;;;-0.44;80.80;96141.39;107662;1274;146117;-82
2022/02/15 03:47:35;;;;;;;16.10;10.70;;;;;;;-0.36;80.54;96141.64;107559;1274;157003;-82
2022/02/15 03:50:04;;;;;;;18.20;9.90;;;;;;;-0.38;80.48;96145.11;107362;1274;130247;-82
2022/02/15 03:52:33;;;;;;;12.70;7.80;;;;;;;-0.42;80.20;96145.45;107720;1273;77706;-82
2022/02/15 03:55:02;;;;;;;16.30;10.50;;;;;;;-0.44;80.53;96147.78;107779;1274;38566;-82
2022/02/15 03:57:34;;;;;;;13.10;8.10;;;;;;;-0.47;80.43;96147.59;107584;1274;56299;-82
2022/02/15 04:00:17;;;;;;;15.90;9.80;;;;;;;-0.53;80.53;96145.08;107721;1274;38500;-81
2022/02/15 04:02:48;;;;;;;13.10;7.70;;;;;;;-0.56;80.77;96144.58;107933;1273;30856;-82
2022/02/15 04:05:17;;;;;;;13.90;9.40;;;;;;;-0.53;80.92;96147.45;107514;1274;181826;-82
2022/02/15 04:07:45;;;;;;;17.70;9.60;;;;;;;-0.53;80.98;96145.32;107792;1273;46977;-82
2022/02/15 04:10:14;;;;;;;19.00;10.20;;;;;;;-0.52;81.46;96144.05;107582;1274;173768;-82
2022/02/15 04:12:42;;;;;;;13.20;8.60;;;;;;;-0.49;81.57;96145.73;107563;1274;40260;-82
2022/02/15 04:15:12;;;;;;;18.00;9.20;;;;;;;-0.42;81.80;96151.86;107189;1273;197256;-82
2022/02/15 04:17:40;;;;;;;17.00;10.40;;;;;;;-0.32;82.10;96154.53;107372;1273;141232;-82
2022/02/15 04:20:12;;;;;;;13.80;9.10;;;;;;;-0.20;82.01;96156.38;106276;1274;1769431;-82
2022/02/15 04:22:41;;;;;;;18.40;9.80;;;;;;;-0.15;82.05;96154.22;107377;1274;147681;-82
2022/02/15 04:25:11;;;;;;;17.60;7.90;;;;;;;-0.15;82.15;96154.38;107305;1274;149778;-82
2022/02/15 04:27:40;;;;;;;14.90;9.40;;;;;;;-0.07;82.31;96155.59;107341;1274;119622;-82
2022/02/15 04:30:10;;;;;;;13.10;8.50;;;;;;;-0.03;82.02;96160.49;107280;1274;137229;-82
2022/02/15 04:32:39;;;;;;;16.70;9.60;;;;;;;0.00;82.27;96160.61;107194;1274;129618;-82
2022/02/15 04:35:09;;;;;;;14.30;8.60;;;;;;;0.10;82.32;96159.60;107203;1273;151533;-82
2022/02/15 04:37:37;;;;;;;15.60;8.50;;;;;;;0.16;82.25;96159.81;107383;1274;129570;-82
2022/02/15 04:40:08;;;;;;;15.90;9.70;;;;;;;0.20;82.53;96157.30;106311;1274;1304249;-82
2022/02/15 04:42:36;;;;;;;14.40;9.10;;;;;;;0.28;82.15;96158.32;107225;1274;160392;-82
2022/02/15 04:45:06;;;;;;;17.20;9.70;;;;;;;0.23;82.08;96162.58;107309;1273;145356;-82
2022/02/15 04:47:34;;;;;;;15.20;8.80;;;;;;;0.12;82.02;96161.58;107309;1274;144597;-82
2022/02/15 04:50:04;;;;;;;16.50;9.90;;;;;;;0.09;81.97;96170.73;107397;1274;126828;-81
2022/02/15 04:52:32;;;;;;;17.20;10.20;;;;;;;0.09;82.33;96169.99;107367;1274;110155;-82
2022/02/15 04:55:00;;;;;;;15.50;10.00;;;;;;;0.05;82.13;96171.67;107313;1274;155963;-82
2022/02/15 04:57:29;;;;;;;16.70;9.90;;;;;;;0.07;82.37;96169.23;107309;1274;136818;-82
2022/02/15 04:59:57;;;;;;;13.90;8.60;;;;;;;0.20;82.77;96167.27;107360;1274;126315;-82
2022/02/15 05:02:25;;;;;;;14.00;8.60;;;;;;;0.33;82.72;96164.71;106497;1274;1358545;-81
2022/02/15 05:04:55;;;;;;;14.90;9.70;;;;;;;0.48;82.97;96164.95;107242;1274;138799;-82
2022/02/15 05:07:23;;;;;;;12.70;8.90;;;;;;;0.66;82.89;96167.20;107317;1273;154907;-82
2022/02/15 05:09:52;;;;;;;14.90;8.90;;;;;;;0.85;82.79;96168.00;107255;1274;116790;-80
2022/02/15 05:12:20;;;;;;;11.30;7.40;;;;;;;0.91;82.50;96162.55;107441;1274;103647;-82
2022/02/15 05:14:48;;;;;;;14.10;9.20;;;;;;;0.99;82.38;96163.17;107411;1274;125576;-82
2022/02/15 05:17:17;;;;;;;14.20;8.80;;;;;;;1.05;82.23;96162.90;107299;1274;203365;-82
2022/02/15 05:19:45;;;;;;;14.60;6.00;;;;;;;1.09;82.25;96157.08;107238;1274;133925;-82
2022/02/15 05:22:13;;;;;;;13.10;7.20;;;;;;;1.15;81.93;96151.74;107227;1274;149350;-82
2022/02/15 05:24:41;;;;;;;12.60;8.90;;;;;;;1.19;82.09;96152.12;107266;1274;156376;-82
2022/02/15 05:27:10;;;;;;;15.30;8.80;;;;;;;1.24;81.55;96157.12;107285;1273;129807;-82
2022/02/15 05:29:38;;;;;;;12.90;8.80;;;;;;;1.23;81.65;96163.20;107370;1274;132391;-82
2022/02/15 05:32:09;;;;;;;12.80;8.40;;;;;;;1.16;81.28;96164.50;107287;1274;131022;-82
2022/02/15 05:34:37;;;;;;;15.10;9.00;;;;;;;1.04;81.04;96170.19;106151;1274;1674420;-82
2022/02/15 05:37:06;;;;;;;12.00;8.20;;;;;;;0.96;81.04;96173.65;107382;1273;136817;-83
2022/02/15 05:39:34;;;;;;;14.90;8.30;;;;;;;0.97;81.35;96171.58;107303;1274;119820;-82
2022/02/15 05:42:02;;;;;;;12.90;8.90;;;;;;;1.01;81.34;96173.90;107183;1274;194493;-82
2022/02/15 05:44:31;;;;;;;12.00;7.60;;;;;;;1.06;81.68;96178.42;107250;1274;111016;-82
2022/02/15 05:46:59;;;;;;;11.40;8.00;;;;;;;1.11;81.48;96180.65;107322;1274;141033;-82
2022/02/15 05:49:27;;;;;;;15.60;8.90;;;;;;;1.13;81.36;96185.16;107288;1274;118747;-82
2022/02/15 05:51:56;;;;;;;9.80;6.50;;;;;;;1.17;81.44;96189.73;107247;1274;154195;-82
2022/02/15 05:54:24;;;;;;;13.40;8.00;;;;;;;1.24;81.65;96187.98;107184;1274;199843;-82
2022/02/15 05:56:52;;;;;;;12.60;7.80;;;;;;;1.31;81.61;96186.98;107235;1274;137464;-81
2022/02/15 05:59:21;;;;;;;12.40;8.10;;;;;;;1.36;81.34;96185.67;107395;1274;120543;-82
2022/02/15 06:01:49;;;;;;;12.80;8.20;;;;;;;1.38;81.10;96188.70;107515;1274;121747;-82
2022/02/15 06:04:18;;;;;;;11.90;8.00;;;;;;;1.42;81.02;96186.56;107461;1274;125275;-82
2022/02/15 06:06:46;;;;;;;12.10;7.90;;;;;;;1.47;80.99;96187.48;107305;1273;194725;-82
2022/02/15 06:09:14;;;;;;;12.60;7.60;;;;;;;1.54;81.04;96186.56;107237;1274;120989;-82
2022/02/15 06:11:43;;;;;;;14.10;8.30;;;;;;;1.63;81.04;96188.95;107356;1274;113762;-83
2022/02/15 06:14:11;;;;;;;13.00;8.90;;;;;;;1.91;80.78;96189.47;107231;1274;136783;-83
2022/02/15 06:16:39;;;;;;;11.20;7.70;;;;;;;2.35;80.35;96194.23;107331;1274;129208;-83
2022/02/15 06:19:07;;;;;;;13.50;8.60;;;;;;;2.75;79.49;96191.52;107293;1273;121480;-82
2022/02/15 06:21:36;;;;;;;11.10;8.00;;;;;;;3.07;78.67;96188.95;107234;1274;136484;-83
2022/02/15 06:24:05;;;;;;;13.60;8.60;;;;;;;3.41;77.80;96186.80;107314;1274;126248;-82
2022/02/15 06:26:34;;;;;;;11.70;8.20;;;;;;;3.70;76.85;96185.36;107714;1274;76386;-83
2022/02/15 06:29:02;;;;;;;10.00;7.40;;;;;;;3.83;76.02;96188.41;107583;1274;144580;-82
2022/02/15 06:31:30;;;;;;;12.00;7.90;;;;;;;4.03;75.21;96184.73;107421;1274;161445;-82
2022/02/15 06:34:00;;;;;;;9.70;6.80;;;;;;;4.34;74.85;96197.47;107399;1274;180441;-82
2022/02/15 06:36:28;;;;;;;10.10;6.80;;;;;;;4.58;73.94;96198.42;106708;1273;1266448;-83
2022/02/15 06:38:56;;;;;;;8.40;6.80;;;;;;;4.78;73.33;96201.05;107603;1273;58334;-82
2022/02/15 06:41:25;;;;;;;10.30;7.30;;;;;;;5.13;72.79;96204.66;106770;1274;1261074;-82
2022/02/15 06:43:53;;;;;;;9.10;6.80;;;;;;;5.37;71.38;96204.75;107481;1275;142469;-81
2022/02/15 06:46:22;;;;;;;9.20;6.30;;;;;;;5.43;70.36;96204.36;107384;1274;115134;-80
2022/02/15 06:48:50;;;;;;;9.90;7.00;;;;;;;5.66;69.53;96203.27;107337;1274;173418;-82
2022/02/15 06:51:18;;;;;;;10.60;7.30;;;;;;;5.80;68.96;96201.74;107429;1274;115935;-82
2022/02/15 06:53:47;;;;;;;10.00;6.60;;;;;;;6.15;68.97;96200.41;107467;1274;128976;-83
2022/02/15 06:56:15;;;;;;;9.00;5.90;;;;;;;6.62;68.00;96198.70;107305;1274;112591;-83
2022/02/15 06:58:44;;;;;;;13.00;7.60;;;;;;;6.87;66.53;96199.28;107244;1274;157361;-82
2022/02/15 07:01:13;;;;;;;9.90;6.80;;;;;;;7.20;65.50;96201.77;107173;1274;149266;-82
2022/02/15 07:03:42;;;;;;;9.30;6.40;;;;;;;7.49;64.76;96202.51;107185;1274;159381;-83
2022/02/15 07:06:11;;;;;;;8.40;6.10;;;;;;;7.72;64.08;96207.50;107377;1275;113390;-83
2022/02/15 07:08:39;;;;;;;11.20;7.30;;;;;;;7.62;62.19;96209.48;107083;1274;171676;-83
2022/02/15 07:11:08;;;;;;;9.50;6.60;;;;;;;7.57;62.04;96219.63;107279;1274;141020;-83
2022/02/15 07:13:36;;;;;;;8.80;6.20;;;;;;;7.64;61.69;96221.36;106356;1274;1290942;-83
2022/02/15 07:16:05;;;;;;;10.50;7.40;;;;;;;7.82;61.13;96217.80;107229;1274;128243;-84
2022/02/15 07:18:34;;;;;;;8.90;6.80;;;;;;;7.88;60.35;96229.04;107260;1274;138376;-83
2022/02/15 07:21:02;;;;;;;9.50;7.00;;;;;;;8.01;59.53;96228.71;107179;1273;133768;-83
2022/02/15 07:23:31;;;;;;;8.10;5.10;;;;;;;7.86;58.53;96223.13;107298;1273;153786;-83
2022/02/15 07:25:59;;;;;;;9.30;6.40;;;;;;;7.72;58.29;96226.66;107046;1273;223401;-83
2022/02/15 07:28:28;;;;;;;8.10;6.40;;;;;;;7.72;58.63;96231.77;107267;1275;115015;-83
2022/02/15 07:30:57;;;;;;;9.80;6.90;;;;;;;7.91;58.19;96232.61;107239;1274;150032;-83
2022/02/15 07:33:26;;;;;;;10.20;6.30;;;;;;;7.96;57.85;96231.75;107483;1274;98169;-83
2022/02/15 07:35:55;;;;;;;9.80;6.70;;;;;;;8.23;58.27;96239.60;107350;1274;107086;-83
2022/02/15 07:38:23;;;;;;;8.50;6.60;;;;;;;8.80;58.20;96239.59;107307;1273;144641;-83
2022/02/15 07:40:51;;;;;;;9.00;7.30;;;;;;;9.36;57.90;96248.18;107480;1273;117940;-83
2022/02/15 07:43:20;;;;;;;9.00;6.60;;;;;;;9.77;56.92;96247.46;107469;1274;114099;-83
2022/02/15 07:45:48;;;;;;;10.80;7.80;;;;;;;10.25;55.59;96248.04;107371;1274;196265;-83
2022/02/15 07:48:17;;;;;;;11.40;7.70;;;;;;;10.43;54.40;96249.40;107297;1274;128544;-82
2022/02/15 07:50:46;;;;;;;10.10;7.20;;;;;;;10.22;53.28;96255.75;107293;1274;131735;-83
2022/02/15 07:53:14;;;;;;;10.00;7.20;;;;;;;10.10;53.11;96256.04;107343;1273;111739;-83
2022/02/15 07:55:43;;;;;;;10.20;6.90;;;;;;;9.96;53.19;96259.06;107215;1274;160830;-83
2022/02/15 07:58:11;;;;;;;11.10;7.80;;;;;;;10.11;53.42;96256.45;107226;1274;144674;-83
2022/02/15 08:00:40;;;;;;;12.40;8.30;;;;;;;10.24;53.29;96257.80;107281;1273;129177;-83
2022/02/15 08:03:10;;;;;;;11.70;7.60;;;;;;;10.44;53.67;96263.33;107415;1273;144822;-83
2022/02/15 08:05:41;;;;;;;9.80;7.20;;;;;;;10.80;52.79;96264.73;107293;1274;161658;-83
2022/02/15 08:08:09;;;;;;;12.50;8.30;;;;;;;10.92;52.03;96262.39;107351;1274;140483;-83
2022/02/15 08:10:41;;;;;;;9.20;7.20;;;;;;;10.81;51.03;96266.67;107339;1274;133528;-82
2022/02/15 08:13:10;;;;;;;9.50;7.10;;;;;;;10.65;51.21;96271.31;107242;1274;150345;-83
2022/02/15 08:15:41;;;;;;;10.00;6.80;;;;;;;10.60;51.44;96272.48;107204;1273;131075;-83
2022/02/15 08:18:09;;;;;;;12.00;7.10;;;;;;;10.48;51.14;96273.87;107225;1273;145760;-83
2022/02/15 08:20:38;;;;;;;10.50;7.10;;;;;;;10.46;51.48;96270.99;107731;1274;48638;-83
2022/02/15 08:23:07;;;;;;;10.70;7.30;;;;;;;10.38;51.39;96269.48;107716;1274;50317;-83
2022/02/15 08:25:35;;;;;;;10.10;7.20;;;;;;;10.21;51.30;96279.80;107463;1273;216761;-83
2022/02/15 08:28:06;;;;;;;12.60;7.70;;;;;;;10.03;50.99;96283.71;107667;1274;118709;-82
2022/02/15 08:30:34;;;;;;;12.40;7.80;;;;;;;9.86;51.66;96277.44;107667;1274;99407;-84
2022/02/15 08:33:03;;;;;;;13.00;7.50;;;;;;;9.62;52.17;96279.80;107700;1274;96372;-83
2022/02/15 08:35:32;;;;;;;10.30;7.30;;;;;;;9.41;51.87;96283.48;107742;1273;63596;-83
2022/02/15 08:38:00;;;;;;;13.10;7.90;;;;;;;9.09;52.15;96287.88;107555;1273;124335;-83
2022/02/15 08:40:31;;;;;;;11.30;7.70;;;;;;;8.93;52.43;96282.38;107677;1273;38868;-83
2022/02/15 08:43:01;;;;;;;10.60;7.90;;;;;;;8.55;52.73;96282.51;107666;1275;40350;-83
2022/02/15 08:45:29;;;;;;;13.30;8.00;;;;;;;8.29;53.19;96280.84;107998;1274;59520;-83
2022/02/15 08:47:57;;;;;;;10.50;7.50;;;;;;;8.08;53.61;96289.73;107506;1273;164532;-83
2022/02/15 08:50:26;;;;;;;13.40;8.00;;;;;;;7.94;54.07;96283.86;106212;1275;1842467;-83
2022/02/15 08:52:55;;;;;;;11.80;7.50;;;;;;;7.91;54.43;96278.64;107456;1273;192668;-83
2022/02/15 08:55:23;;;;;;;10.30;7.40;;;;;;;7.81;54.40;96282.99;107438;1274;213307;-82
2022/02/15 08:57:52;;;;;;;12.60;8.10;;;;;;;7.77;54.87;96278.89;107505;1275;146867;-84
2022/02/15 09:00:20;;;;;;;12.70;7.60;;;;;;;7.80;54.92;96271.65;107370;1274;127680;-83
2022/02/15 09:02:49;;;;;;;12.60;7.60;;;;;;;7.73;55.26;96268.17;107315;1275;192411;-83
2022/02/15 09:05:17;;;;;;;11.30;7.00;;;;;;;7.77;55.77;96262.16;107424;1275;151137;-83
2022/02/15 09:07:45;;;;;;;12.30;7.80;;;;;;;7.81;55.40;96260.62;107213;1274;147112;-83
2022/02/15 09:10:14;;;;;;;11.80;8.10;;;;;;;7.61;55.17;96266.77;107303;1274;134998;-83
2022/02/15 09:12:43;;;;;;;12.20;8.10;;;;;;;7.56;55.83;96264.15;107265;1273;154024;-83
2022/02/15 09:15:13;;;;;;;12.50;8.10;;;;;;;7.56;56.01;96261.83;107236;1274;117345;-84
2022/02/15 09:17:42;;;;;;;12.10;7.40;;;;;;;7.46;56.21;96269.56;107138;1273;151424;-83
2022/02/15 09:20:12;;;;;;;12.70;7.50;;;;;;;7.48;56.07;96268.50;107416;1274;108128;-83
2022/02/15 09:22:41;;;;;;;14.50;7.00;;;;;;;7.43;56.11;96272.77;107266;1274;113821;-83
2022/02/15 09:25:10;;;;;;;12.60;7.10;;;;;;;7.47;56.08;96265.50;107170;1275;152588;-84
2022/02/15 09:27:39;;;;;;;10.80;7.30;;;;;;;7.40;56.40;96266.24;107026;1275;156625;-83
2022/02/15 09:30:10;;;;;;;11.90;6.30;;;;;;;7.44;56.31;96263.75;105969;1274;1682815;-83
2022/02/15 09:32:39;;;;;;;12.20;7.00;;;;;;;7.45;55.95;96265.45;107202;1274;156465;-84
2022/02/15 09:35:09;;;;;;;11.40;7.20;;;;;;;7.42;56.06;96276.78;105750;1274;1923571;-84
2022/02/15 09:37:38;;;;;;;14.40;8.00;;;;;;;7.54;55.90;96282.69;107120;1275;169341;-83
2022/02/15 09:40:09;;;;;;;10.60;6.90;;;;;;;7.58;55.59;96280.55;106331;1274;1300774;-84
2022/02/15 09:42:39;;;;;;;10.30;6.60;;;;;;;7.66;55.30;96284.82;107232;1274;127141;-84
2022/02/15 09:45:10;;;;;;;10.80;6.70;;;;;;;7.70;55.24;96278.79;107267;1274;171186;-84
2022/02/15 09:47:41;;;;;;;11.90;7.60;;;;;;;7.72;55.22;96288.14;107213;1273;143040;-83
2022/02/15 09:50:11;;;;;;;10.50;6.50;;;;;;;7.82;54.93;96288.80;107292;1274;123625;-83
2022/02/15 09:52:45;;;;;;;9.50;6.60;;;;;;;7.89;54.57;96290.27;107299;1274;114181;-83
2022/02/15 09:55:14;;;;;;;9.00;6.10;;;;;;;8.05;55.22;96290.99;107346;1274;108478;-83
2022/02/15 09:57:43;;;;;;;11.90;7.00;;;;;;;8.23;53.79;96293.95;107287;1274;102343;-83
2022/02/15 10:00:14;;;;;;;11.80;7.30;;;;;;;8.25;53.90;96292.66;107291;1274;114676;-83
2022/02/15 10:02:43;;;;;;;10.80;6.80;;;;;;;8.35;53.72;96294.45;107285;1274;121627;-84
2022/02/15 10:05:16;;;;;;;12.00;7.40;;;;;;;8.38;53.57;96299.09;107399;1274;147021;-84
2022/02/15 10:07:49;;;;;;;11.50;7.20;;;;;;;8.51;53.97;96298.17;107241;1273;135332;-84
2022/02/15 10:10:29;;;;;;;12.30;7.50;;;;;;;8.58;52.85;96301.83;106439;1273;1495144;-83
2022/02/15 10:13:04;;;;;;;9.10;5.80;;;;;;;8.61;53.18;96296.90;107130;1274;182171;-83
2022/02/15 10:15:34;;;;;;;11.00;7.00;;;;;;;8.62;51.87;96300.13;107199;1274;188127;-83
2022/02/15 10:18:08;;;;;;;15.10;7.20;;;;;;;8.50;51.89;96294.06;107281;1274;177140;-83
2022/02/15 10:20:38;;;;;;;11.90;7.50;;;;;;;8.46;52.34;96293.61;107176;1275;152582;-83
2022/02/15 10:23:15;;;;;;;11.10;7.00;;;;;;;8.57;52.19;96291.08;107263;1274;141389;-83
2022/02/15 10:25:43;;;;;;;10.00;7.20;;;;;;;8.70;52.60;96287.19;107244;1274;117543;-83
2022/02/15 10:28:14;;;;;;;9.20;6.40;;;;;;;8.79;52.29;96292.89;107116;1272;186550;-83
2022/02/15 10:30:50;;;;;;;10.40;7.30;;;;;;;8.91;51.63;96288.96;107103;1274;160411;-84
2022/02/15 10:33:20;;;;;;;10.40;6.60;;;;;;;8.89;50.72;96291.30;107408;1274;128535;-84
2022/02/15 10:35:58;;;;;;;11.90;7.10;;;;;;;8.79;50.63;96284.23;107303;1274;134056;-83
2022/02/15 10:38:30;;;;;;;12.90;7.30;;;;;;;8.78;51.08;96285.19;107057;1274;159155;-84
2022/02/15 10:41:00;;;;;;;12.20;7.20;;;;;;;8.85;51.27;96281.34;107171;1275;168616;-84
2022/02/15 10:43:40;;;;;;;12.20;7.20;;;;;;;8.95;51.44;96281.84;107160;1273;157510;-83
2022/02/15 10:46:13;;;;;;;14.00;7.10;;;;;;;9.08;50.82;96285.55;107241;1274;120237;-83
2022/02/15 10:48:42;;;;;;;10.00;6.40;;;;;;;9.09;50.70;96289.94;107229;1275;148307;-84
2022/02/15 10:51:12;;;;;;;15.60;7.90;;;;;;;9.13;50.55;96292.07;107111;1274;156785;-84
2022/02/15 10:53:40;;;;;;;13.40;7.70;;;;;;;9.21;51.29;96289.52;107303;1273;132854;-84
2022/02/15 10:56:09;;;;;;;10.40;6.90;;;;;;;9.35;51.07;96289.48;107264;1273;142695;-83
2022/02/15 10:58:38;;;;;;;13.30;7.40;;;;;;;9.37;50.39;96289.34;107277;1274;103642;-84
2022/02/15 11:01:10;;;;;;;14.80;7.20;;;;;;;9.33;50.09;96282.67;107343;1274;110102;-83
2022/02/15 11:03:41;;;;;;;10.50;6.80;;;;;;;9.34;50.85;96284.08;105944;1273;2013093;-84
2022/02/15 11:06:10;;;;;;;10.00;6.80;;;;;;;9.47;50.82;96276.56;107313;1273;122887;-83
2022/02/15 11:08:40;;;;;;;12.10;6.90;;;;;;;9.58;49.83;96281.60;107163;1273;139882;-83
2022/02/15 11:11:13;;;;;;;10.90;7.90;;;;;;;9.48;49.40;96282.48;107319;1274;117323;-84
2022/02/15 11:13:42;;;;;;;11.00;6.70;;;;;;;9.43;49.75;96280.23;107205;1274;150012;-84
2022/02/15 11:16:15;;;;;;;9.80;6.10;;;;;;;9.49;50.24;96278.70;107213;1273;169787;-84
2022/02/15 11:18:45;;;;;;;13.50;7.90;;;;;;;9.52;49.91;96275.39;107115;1274;158564;-84
2022/02/15 11:21:23;;;;;;;12.00;7.30;;;;;;;9.58;49.92;96276.52;107176;1274;162532;-84
2022/02/15 11:23:59;;;;;;;13.50;7.90;;;;;;;9.63;50.03;96274.57;107444;1274;174474;-84
2022/02/15 11:26:35;;;;;;;11.50;7.00;;;;;;;9.73;49.88;96283.61;107244;1274;132121;-84
2022/02/15 11:29:04;;;;;;;12.10;7.40;;;;;;;9.86;49.43;96281.84;107268;1274;127454;-84